createdAt,value
2019-05-25T06:17:26.103Z,12.70
2019-05-25T06:19:54.505Z,12.50
2019-05-25T06:22:22.907Z,12.50
2019-05-25T06:24:51.319Z,12.40
2019-05-25T06:27:27.587Z,12.40
2019-05-25T06:29:50.105Z,12.40
2019-05-25T06:32:18.538Z,12.60
2019-05-25T06:34:47.009Z,12.70
2019-05-25T06:37:15.408Z,12.60
2019-05-25T06:39:43.818Z,12.60
2019-05-25T06:42:12.248Z,12.70
2019-05-25T06:44:40.666Z,12.80
2019-05-25T06:47:09.119Z,12.70
2019-05-25T06:49:37.555Z,12.90
2019-05-25T06:52:06.275Z,12.90
2019-05-25T06:54:34.790Z,13.20
2019-05-25T06:57:03.254Z,13.50
2019-05-25T06:59:31.655Z,13.50
2019-05-25T07:02:00.134Z,13.60
2019-05-25T07:04:28.539Z,13.60
2019-05-25T07:06:57.012Z,13.70
2019-05-25T07:09:25.464Z,13.50
2019-05-25T07:11:53.875Z,13.60
2019-05-25T07:14:22.355Z,14.00
2019-05-25T07:16:50.834Z,14.10
2019-05-25T07:19:19.848Z,14.30
2019-05-25T07:21:48.267Z,14.50
2019-05-25T07:24:16.704Z,14.60
2019-05-25T07:26:45.114Z,14.60
2019-05-25T07:29:13.523Z,14.40
2019-05-25T07:31:41.942Z,14.50
2019-05-25T07:34:10.494Z,14.90
2019-05-25T07:39:07.461Z,15.00
2019-05-25T07:41:35.860Z,14.90
2019-05-25T07:44:04.430Z,15.00
2019-05-25T07:46:33.010Z,14.90
2019-05-25T07:49:01.405Z,15.10
2019-05-25T07:51:29.858Z,15.20
2019-05-25T07:53:58.293Z,15.40
2019-05-25T07:56:26.695Z,15.30
2019-05-25T08:01:23.191Z,15.50
2019-05-25T08:03:51.671Z,15.50
2019-05-25T08:06:20.168Z,15.60
2019-05-25T08:08:48.656Z,15.70
2019-05-25T08:11:17.055Z,15.90
2019-05-25T08:13:45.627Z,16.00
2019-05-25T08:16:14.042Z,15.60
2019-05-25T08:18:42.438Z,15.80
2019-05-25T08:21:11.210Z,15.70
2019-05-25T08:23:39.671Z,16.00
2019-05-25T08:26:08.099Z,16.00
2019-05-25T08:28:36.511Z,16.90
2019-05-25T08:31:05.739Z,17.10
2019-05-25T08:33:34.187Z,17.60
2019-05-25T08:36:02.649Z,17.10
2019-05-25T08:38:31.079Z,16.90
2019-05-25T08:40:59.491Z,17.10
2019-05-25T08:43:27.892Z,19.60
2019-05-25T08:53:31.195Z,21.40
2019-05-25T08:55:50.666Z,24.20
2019-05-25T08:58:19.376Z,24.40
2019-05-25T09:00:47.874Z,21.00
2019-05-25T09:03:16.376Z,20.50
2019-05-25T09:05:44.763Z,20.50
2019-05-25T09:08:13.179Z,19.80
2019-05-25T09:10:41.595Z,19.80
2019-05-25T09:13:10.017Z,20.10
2019-05-25T09:15:38.415Z,27.00
2019-05-25T09:18:07.016Z,30.60
2019-05-25T09:20:35.475Z,31.80
2019-05-25T09:23:03.944Z,32.10
2019-05-25T09:25:32.398Z,33.60
2019-05-25T09:28:00.799Z,34.10
2019-05-25T09:30:29.206Z,32.60
2019-05-25T09:32:57.639Z,34.00
2019-05-25T09:35:26.110Z,33.10
2019-05-25T09:37:54.526Z,35.10
2019-05-25T09:40:23.016Z,34.10
2019-05-25T09:42:51.469Z,30.90
2019-05-25T09:45:19.983Z,27.60
2019-05-25T09:47:48.413Z,26.30
2019-05-25T09:50:17.062Z,26.40
2019-05-25T09:52:45.443Z,24.80
2019-05-25T09:55:14.307Z,29.10
2019-05-25T09:57:42.718Z,34.50
2019-05-25T10:00:13.628Z,33.00
2019-05-25T10:02:43.255Z,29.50
2019-05-25T10:05:12.618Z,35.00
2019-05-25T10:07:41.022Z,35.60
2019-05-25T10:10:09.901Z,38.00
2019-05-25T10:12:38.302Z,38.00
2019-05-25T10:15:08.613Z,39.50
2019-05-25T10:17:37.278Z,39.30
2019-05-25T10:20:06.400Z,37.00
2019-05-25T10:22:34.803Z,36.70
2019-05-25T10:25:04.803Z,32.20
2019-05-25T10:27:34.309Z,30.20
2019-05-25T10:30:03.025Z,30.90
2019-05-25T10:32:31.456Z,27.80
2019-05-25T10:34:59.867Z,28.70
2019-05-25T10:37:28.354Z,29.00
2019-05-25T10:39:56.763Z,29.30
2019-05-25T10:42:25.162Z,32.20
2019-05-25T10:44:53.893Z,32.20
2019-05-25T10:47:22.300Z,29.00
2019-05-25T10:49:50.963Z,31.60
2019-05-25T10:52:19.663Z,34.50
2019-05-25T10:54:48.075Z,35.60
2019-05-25T10:57:16.518Z,34.40
2019-05-25T10:59:53.034Z,33.60
2019-05-25T11:02:15.122Z,31.60
2019-05-25T11:04:43.587Z,27.10
2019-05-25T11:07:12.028Z,26.90
2019-05-25T11:09:40.435Z,28.00
2019-05-25T11:12:08.871Z,28.90
2019-05-25T11:14:37.328Z,29.20
2019-05-25T11:17:05.735Z,28.10
2019-05-25T11:19:34.135Z,26.60
2019-05-25T11:22:02.547Z,26.20
2019-05-25T11:24:30.957Z,24.80
2019-05-25T11:26:59.893Z,24.10
2019-05-25T11:32:01.163Z,24.90
2019-05-25T11:34:26.911Z,26.10
2019-05-25T11:36:55.310Z,26.20
2019-05-25T11:39:23.716Z,24.20
2019-05-25T11:41:52.158Z,23.40
2019-05-25T11:44:20.546Z,22.80
2019-05-25T11:46:48.947Z,23.70
2019-05-25T11:49:22.576Z,24.80
2019-05-25T11:51:47.639Z,25.90
2019-05-25T11:54:16.122Z,25.20
2019-05-25T11:56:44.559Z,24.40
2019-05-25T11:59:12.962Z,25.10
2019-05-25T12:01:41.527Z,25.10
2019-05-25T12:04:09.988Z,26.20
2019-05-25T12:06:38.418Z,25.80
2019-05-25T12:09:07.973Z,25.30
2019-05-25T12:11:36.459Z,23.60
2019-05-25T12:14:04.935Z,23.40
2019-05-25T12:16:33.441Z,22.90
2019-05-25T12:19:02.105Z,22.20
2019-05-25T12:21:30.611Z,22.00
2019-05-25T12:23:59.207Z,22.90
2019-05-25T12:26:27.639Z,23.90
2019-05-25T12:28:56.132Z,24.40
2019-05-25T12:31:24.537Z,24.70
2019-05-25T12:33:53.046Z,23.90
2019-05-25T12:36:21.448Z,23.30
2019-05-25T12:38:49.861Z,23.80
2019-05-25T12:41:18.262Z,23.80
2019-05-25T12:43:46.771Z,24.30
2019-05-25T12:46:15.174Z,23.80
2019-05-25T12:48:43.583Z,24.00
2019-05-25T12:51:12.012Z,23.10
2019-05-25T12:53:40.511Z,22.50
2019-05-25T12:56:09.184Z,22.60
2019-05-25T12:58:37.624Z,23.20
2019-05-25T13:01:06.022Z,23.70
2019-05-25T13:03:34.439Z,23.60
2019-05-25T13:06:02.860Z,23.50
2019-05-25T13:08:31.264Z,23.10
2019-05-25T13:10:59.663Z,23.90
2019-05-25T13:13:28.097Z,24.00
2019-05-25T13:15:56.775Z,24.30
2019-05-25T13:18:25.272Z,23.90
2019-05-25T13:20:53.699Z,22.90
2019-05-25T13:23:22.103Z,23.00
2019-05-25T13:25:50.516Z,22.90
2019-05-25T13:28:18.926Z,22.40
2019-05-25T13:30:47.331Z,22.50
2019-05-25T13:33:15.739Z,22.90
2019-05-25T13:35:44.592Z,23.40
2019-05-25T13:38:12.987Z,23.50
2019-05-25T13:40:41.463Z,23.40
2019-05-25T13:43:09.915Z,23.50
2019-05-25T13:45:38.319Z,23.60
2019-05-25T13:48:06.732Z,23.70
2019-05-25T13:50:35.331Z,23.50
2019-05-25T13:53:03.736Z,23.70
2019-05-25T13:55:32.151Z,22.90
2019-05-25T13:58:00.552Z,22.80
2019-05-25T14:00:29.038Z,22.90
2019-05-25T14:02:57.445Z,23.00
2019-05-25T14:05:26.014Z,23.70
2019-05-25T14:07:54.427Z,23.50
2019-05-25T14:10:22.856Z,23.70
2019-05-25T14:12:51.263Z,23.20
2019-05-25T14:15:19.660Z,22.20
2019-05-25T14:17:48.060Z,21.60
2019-05-25T14:20:16.828Z,21.40
2019-05-25T14:22:45.231Z,21.90
2019-05-25T14:25:13.706Z,21.90
2019-05-25T14:27:42.115Z,22.00
2019-05-25T14:30:10.960Z,22.30
2019-05-25T14:32:39.424Z,22.20
2019-05-25T14:35:08.789Z,21.90
2019-05-25T14:37:37.201Z,21.70
2019-05-25T14:40:11.223Z,21.40
2019-05-25T14:42:38.182Z,21.60
2019-05-25T14:45:08.019Z,22.00
2019-05-25T14:47:36.471Z,22.00
2019-05-25T14:50:07.694Z,21.50
2019-05-25T14:52:36.091Z,21.20
2019-05-25T14:55:08.734Z,21.30
2019-05-25T14:57:37.138Z,21.50
2019-05-25T15:00:07.467Z,22.10
2019-05-25T15:02:35.864Z,22.30
2019-05-25T15:05:05.077Z,22.20
2019-05-25T15:07:33.579Z,21.90
2019-05-25T15:10:02.651Z,21.90
2019-05-25T15:12:31.141Z,21.80
2019-05-25T15:14:59.558Z,21.50
2019-05-25T15:17:28.268Z,21.40
2019-05-25T15:19:56.718Z,20.90
2019-05-25T15:22:25.193Z,20.70
2019-05-25T15:24:53.593Z,20.50
2019-05-25T15:27:22.012Z,20.60
2019-05-25T15:29:50.412Z,20.50
2019-05-25T15:32:20.572Z,20.60
2019-05-25T15:34:48.969Z,20.70
2019-05-25T15:37:17.372Z,20.70
2019-05-25T15:39:45.779Z,20.80
2019-05-25T15:42:14.218Z,20.60
2019-05-25T15:44:42.611Z,20.50
2019-05-25T15:47:11.017Z,20.20
2019-05-25T15:49:39.431Z,20.40
2019-05-25T15:52:07.902Z,20.40
2019-05-25T15:54:36.303Z,20.60
2019-05-25T15:57:05.054Z,20.40
2019-05-25T15:59:33.457Z,20.40
2019-05-25T16:02:01.859Z,20.20
2019-05-25T16:04:30.584Z,20.30
2019-05-25T16:06:58.988Z,20.20
2019-05-25T16:09:27.393Z,20.30
2019-05-25T16:11:55.796Z,20.50
2019-05-25T16:14:24.247Z,20.80
2019-05-25T16:16:52.667Z,21.10
2019-05-25T16:19:21.073Z,20.90
2019-05-25T16:21:49.495Z,21.00
2019-05-25T16:24:17.906Z,21.00
2019-05-25T16:26:46.836Z,20.70
2019-05-25T16:29:15.321Z,20.50
2019-05-25T16:31:43.779Z,20.40
2019-05-25T16:34:12.186Z,20.40
2019-05-25T16:36:40.601Z,20.50
2019-05-25T16:39:08.999Z,20.60
2019-05-25T16:41:37.403Z,20.70
2019-05-25T16:44:05.819Z,20.60
2019-05-25T16:46:34.219Z,20.50
2019-05-25T16:49:02.693Z,20.40
2019-05-25T16:51:31.182Z,20.40
2019-05-25T16:53:59.591Z,20.20
2019-05-25T16:56:28.010Z,20.10
2019-05-25T16:58:56.410Z,20.20
2019-05-25T17:01:26.189Z,20.10
2019-05-25T17:03:54.594Z,20.10
2019-05-25T17:06:23.013Z,20.10
2019-05-25T17:08:51.416Z,20.20
2019-05-25T17:11:19.823Z,20.30
2019-05-25T17:13:48.309Z,20.00
2019-05-25T17:16:16.739Z,19.80
2019-05-25T17:18:45.143Z,20.00
2019-05-25T17:21:14.123Z,19.90
2019-05-25T17:23:42.531Z,19.90
2019-05-25T17:26:10.949Z,19.90
2019-05-25T17:28:39.344Z,20.00
2019-05-25T17:31:07.751Z,19.90
2019-05-25T17:33:46.020Z,19.90
2019-05-25T17:36:06.366Z,19.80
2019-05-25T17:38:34.771Z,19.70
2019-05-25T17:41:03.203Z,19.70
2019-05-25T17:43:31.606Z,19.50
2019-05-25T17:46:00.026Z,19.40
2019-05-25T17:48:28.438Z,19.50
2019-05-25T17:50:56.851Z,19.50
2019-05-25T17:53:25.352Z,19.30
2019-05-25T17:55:53.823Z,19.20
2019-05-25T17:58:22.231Z,19.20
2019-05-25T18:00:51.127Z,19.10
2019-05-25T18:03:19.683Z,19.00
2019-05-25T18:05:48.153Z,18.80
2019-05-25T18:08:16.636Z,18.70
2019-05-25T18:10:54.338Z,18.60
2019-05-25T18:13:15.319Z,18.70
2019-05-25T18:15:43.731Z,18.60
2019-05-25T18:18:12.132Z,18.50
2019-05-25T18:20:40.603Z,18.50
2019-05-25T18:23:09.011Z,18.50
2019-05-25T18:25:37.694Z,18.40
2019-05-25T18:28:06.262Z,18.30
2019-05-25T18:30:34.746Z,18.20
2019-05-25T18:33:03.238Z,18.20
2019-05-25T18:35:31.639Z,18.30
2019-05-25T18:38:00.048Z,18.30
2019-05-25T18:40:28.520Z,18.00
2019-05-25T18:42:56.923Z,18.00
2019-05-25T18:45:25.353Z,18.10
2019-05-25T18:47:53.755Z,17.90
2019-05-25T18:50:22.794Z,17.90
2019-05-25T18:52:51.271Z,17.80
2019-05-25T18:55:19.946Z,17.70
2019-05-25T18:57:48.359Z,17.50
2019-05-25T19:00:18.463Z,17.30
2019-05-25T19:02:46.860Z,17.40
2019-05-25T19:05:15.903Z,17.30
2019-05-25T19:07:44.393Z,17.20
2019-05-25T19:10:13.427Z,17.30
2019-05-25T19:12:41.834Z,17.10
2019-05-25T19:15:10.641Z,17.10
2019-05-25T19:17:39.142Z,16.90
2019-05-25T19:20:08.696Z,17.00
2019-05-25T19:22:37.485Z,16.80
2019-05-25T19:25:10.430Z,16.60
2019-05-25T19:27:38.932Z,16.40
2019-05-25T19:30:08.571Z,16.20
2019-05-25T19:32:37.025Z,16.10
2019-05-25T19:35:06.387Z,16.00
2019-05-25T19:37:35.228Z,15.90
2019-05-25T19:40:08.996Z,15.80
2019-05-25T19:42:35.810Z,15.70
2019-05-25T19:45:06.369Z,15.60
2019-05-25T19:47:34.772Z,15.60
2019-05-25T19:50:05.279Z,15.50
2019-05-25T19:55:01.963Z,15.30
2019-05-25T19:57:30.411Z,15.10
2019-05-25T19:59:58.815Z,15.10
2019-05-25T20:02:27.220Z,15.10
2019-05-25T20:04:55.624Z,15.10
2019-05-25T20:07:24.063Z,14.90
2019-05-25T20:09:52.534Z,14.80
2019-05-25T20:12:20.939Z,14.80
2019-05-25T20:14:49.610Z,14.70
2019-05-25T20:17:18.006Z,14.70
2019-05-25T20:24:42.950Z,14.30
2019-05-25T20:27:11.432Z,14.30
2019-05-25T20:29:40.001Z,14.30
2019-05-25T20:32:08.403Z,14.40
2019-05-25T20:34:36.894Z,14.20
2019-05-25T20:37:05.319Z,14.10
2019-05-25T20:39:33.720Z,14.10
2019-05-25T20:42:02.147Z,14.00
2019-05-25T20:44:30.551Z,14.00
2019-05-25T20:46:58.955Z,13.90
2019-05-25T20:51:55.453Z,13.80
2019-05-25T20:54:23.851Z,13.60
2019-05-25T20:56:52.342Z,13.50
2019-05-25T20:59:20.751Z,13.40
2019-05-25T21:01:49.240Z,13.50
2019-05-25T21:04:17.637Z,13.40
2019-05-25T21:06:46.040Z,13.30
2019-05-25T21:09:14.467Z,13.20
2019-05-25T21:11:42.951Z,13.20
2019-05-25T21:14:11.371Z,13.20
2019-05-25T21:16:39.791Z,13.20
2019-05-25T21:19:08.209Z,13.10
2019-05-25T21:21:36.692Z,13.10
2019-05-25T21:24:05.193Z,13.10
2019-05-25T21:26:33.662Z,13.10
2019-05-25T21:29:02.140Z,13.00
2019-05-25T21:31:30.559Z,13.00
2019-05-25T21:33:58.962Z,13.00
2019-05-25T21:36:27.408Z,13.00
2019-05-25T21:38:55.822Z,13.00
2019-05-25T21:41:24.222Z,12.80
2019-05-25T21:43:52.659Z,12.70
2019-05-25T21:46:21.159Z,12.70
2019-05-25T21:48:49.564Z,12.60
2019-05-25T21:51:17.972Z,12.50
2019-05-25T21:53:46.470Z,12.60
2019-05-25T21:56:15.171Z,12.70
2019-05-25T21:58:44.071Z,12.60
2019-05-25T22:01:13.176Z,12.70
2019-05-25T22:03:41.585Z,12.50
2019-05-25T22:06:23.292Z,12.40
2019-05-25T22:08:40.316Z,12.40
2019-05-25T22:11:08.720Z,12.40
2019-05-25T22:13:37.124Z,12.30
2019-05-25T22:16:05.538Z,12.20
2019-05-25T22:18:33.963Z,12.20
2019-05-25T22:21:02.367Z,12.20
2019-05-25T22:23:31.094Z,12.20
2019-05-25T22:25:59.500Z,12.10
2019-05-25T22:28:41.927Z,12.10
2019-05-25T22:30:58.183Z,12.00
2019-05-25T22:33:26.683Z,12.00
2019-05-25T22:35:55.285Z,11.90
2019-05-25T22:38:23.782Z,11.90
2019-05-25T22:40:52.190Z,11.90
2019-05-25T22:43:20.622Z,12.00
2019-05-25T22:45:49.046Z,12.00
2019-05-25T22:48:17.451Z,12.00
2019-05-25T22:50:45.859Z,12.10
2019-05-25T22:53:14.374Z,12.30
2019-05-25T22:55:42.779Z,12.50
2019-05-25T22:58:11.237Z,12.60
2019-05-25T23:00:39.657Z,12.70
2019-05-25T23:03:08.062Z,12.70
2019-05-25T23:05:36.458Z,12.80
2019-05-25T23:08:04.863Z,12.80
2019-05-25T23:10:33.263Z,12.80
2019-05-25T23:13:01.663Z,12.80
2019-05-25T23:15:30.080Z,12.80
2019-05-25T23:17:58.486Z,12.80
2019-05-25T23:20:26.892Z,12.70
2019-05-25T23:22:55.320Z,12.80
2019-05-25T23:25:23.766Z,12.70
2019-05-25T23:27:52.167Z,12.70
2019-05-25T23:30:20.916Z,12.60
2019-05-25T23:32:49.314Z,12.70
2019-05-25T23:35:17.719Z,12.70
2019-05-25T23:37:46.130Z,12.60
2019-05-25T23:40:14.977Z,12.70
2019-05-25T23:42:43.512Z,12.60
2019-05-25T23:45:12.447Z,12.60
2019-05-25T23:47:41.608Z,12.60
2019-05-25T23:50:10.551Z,12.60
2019-05-25T23:52:39.031Z,12.60
2019-05-25T23:55:07.774Z,12.70
2019-05-25T23:57:36.172Z,12.60
